createdAt,value
2022-11-10T00:02:52.518Z,10.33
2022-11-10T00:06:14.682Z,10.32
2022-11-10T00:09:36.274Z,10.27
2022-11-10T00:13:01.299Z,10.25
2022-11-10T00:16:41.606Z,10.28
2022-11-10T00:20:03.605Z,10.26
2022-11-10T00:23:25.275Z,10.31
2022-11-10T00:26:47.056Z,10.29
2022-11-10T00:30:09.253Z,10.22
2022-11-10T00:33:32.301Z,10.29
2022-11-10T00:36:53.945Z,10.28
2022-11-10T00:40:16.256Z,10.19
2022-11-10T00:43:37.812Z,10.21
2022-11-10T00:46:59.438Z,10.21
2022-11-10T00:50:22.421Z,10.23
2022-11-10T00:53:44.104Z,10.27
2022-11-10T00:57:05.866Z,10.22
2022-11-10T01:00:27.315Z,10.22
2022-11-10T01:03:48.935Z,10.17
2022-11-10T01:07:12.225Z,10.09
2022-11-10T01:10:33.905Z,10.09
2022-11-10T01:13:56.644Z,10.13
2022-11-10T01:17:18.251Z,10.08
2022-11-10T01:20:39.877Z,9.97
2022-11-10T01:24:02.931Z,10.01
2022-11-10T01:27:24.462Z,10.04
2022-11-10T01:30:45.959Z,10.01
2022-11-10T01:34:08.190Z,10.03
2022-11-10T01:37:29.654Z,10.00
2022-11-10T01:40:52.680Z,9.91
2022-11-10T01:44:17.489Z,9.92
2022-11-10T01:47:39.144Z,9.90
2022-11-10T01:51:03.372Z,9.81
2022-11-10T01:54:28.413Z,9.77
2022-11-10T01:57:52.024Z,9.67
2022-11-10T02:01:13.647Z,9.62
2022-11-10T02:04:37.132Z,9.58
2022-11-10T02:07:58.637Z,9.43
2022-11-10T02:11:20.397Z,9.29
2022-11-10T02:14:43.488Z,9.27
2022-11-10T02:18:05.014Z,9.40
2022-11-10T02:21:27.798Z,9.42
2022-11-10T02:24:49.288Z,9.32
2022-11-10T02:28:11.244Z,9.36
2022-11-10T02:31:32.923Z,9.42
2022-11-10T02:34:54.859Z,9.40
2022-11-10T02:38:17.836Z,9.44
2022-11-10T02:41:39.202Z,9.48
2022-11-10T02:45:00.919Z,9.49
2022-11-10T02:48:22.339Z,9.47
2022-11-10T02:51:43.660Z,9.54
2022-11-10T02:55:07.642Z,9.51
2022-11-10T02:58:28.841Z,9.52
2022-11-10T03:01:50.468Z,9.49
2022-11-10T03:05:12.736Z,9.32
2022-11-10T03:08:34.388Z,9.30
2022-11-10T03:11:57.366Z,9.24
2022-11-10T03:15:19.013Z,9.24
2022-11-10T03:18:40.575Z,9.17
2022-11-10T03:22:02.047Z,9.03
2022-11-10T03:25:24.129Z,9.02
2022-11-10T03:28:47.126Z,9.02
2022-11-10T03:32:08.721Z,9.01
2022-11-10T03:35:30.378Z,8.94
2022-11-10T03:38:52.044Z,8.89
2022-11-10T03:42:13.744Z,8.85
2022-11-10T03:45:36.619Z,8.78
2022-11-10T03:48:58.236Z,8.73
2022-11-10T03:52:19.865Z,8.70
2022-11-10T03:55:41.293Z,8.66
2022-11-10T03:59:03.045Z,8.67
2022-11-10T04:02:25.981Z,8.68
2022-11-10T04:06:05.004Z,8.66
2022-11-10T04:09:26.427Z,8.62
2022-11-10T04:13:06.173Z,8.54
2022-11-10T04:16:27.579Z,8.53
2022-11-10T04:19:50.539Z,8.53
2022-11-10T04:23:31.089Z,8.44
2022-11-10T04:26:52.636Z,8.42
2022-11-10T04:30:14.124Z,8.39
2022-11-10T04:33:36.103Z,8.34
2022-11-10T04:36:59.057Z,8.32
2022-11-10T04:40:20.297Z,8.30
2022-11-10T04:43:42.160Z,8.34
2022-11-10T04:47:06.466Z,8.32
2022-11-10T04:50:31.717Z,8.25
2022-11-10T04:53:54.780Z,8.08
2022-11-10T04:57:16.080Z,7.92
2022-11-10T05:00:38.495Z,8.00
2022-11-10T05:03:59.954Z,7.96
2022-11-10T05:07:21.479Z,7.82
2022-11-10T05:10:44.901Z,7.75
2022-11-10T05:14:06.692Z,7.55
2022-11-10T05:17:28.066Z,7.65
2022-11-10T05:20:50.541Z,7.61
2022-11-10T05:24:12.067Z,7.55
2022-11-10T05:27:34.984Z,7.49
2022-11-10T05:30:56.956Z,7.50
2022-11-10T05:34:18.328Z,7.43
2022-11-10T05:37:40.856Z,7.40
2022-11-10T05:41:02.522Z,7.38
2022-11-10T05:44:26.021Z,7.34
2022-11-10T05:47:47.285Z,7.19
2022-11-10T05:51:08.776Z,7.24
2022-11-10T05:54:30.158Z,7.18
2022-11-10T05:57:53.303Z,7.17
2022-11-10T06:01:16.743Z,7.09
2022-11-10T06:04:38.287Z,7.07
2022-11-10T06:08:00.350Z,7.23
2022-11-10T06:11:21.911Z,7.16
2022-11-10T06:14:43.735Z,7.08
2022-11-10T06:20:56.205Z,6.94
2022-11-10T06:24:17.458Z,6.99
2022-11-10T06:27:39.029Z,6.92
2022-11-10T06:31:00.620Z,6.81
2022-11-10T06:34:22.501Z,6.63
2022-11-10T06:37:45.188Z,6.58
2022-11-10T06:41:06.910Z,6.69
2022-11-10T06:44:28.657Z,6.72
2022-11-10T06:47:50.578Z,6.82
2022-11-10T06:51:12.291Z,6.90
2022-11-10T06:54:35.353Z,6.88
2022-11-10T06:57:57.670Z,6.71
2022-11-10T07:01:22.424Z,6.88
2022-11-10T07:04:44.650Z,6.95
2022-11-10T07:08:07.844Z,7.01
2022-11-10T07:11:30.705Z,6.94
2022-11-10T07:14:52.310Z,7.03
2022-11-10T07:18:14.120Z,6.95
2022-11-10T07:21:35.814Z,6.87
2022-11-10T07:24:57.717Z,7.03
2022-11-10T07:28:23.456Z,6.96
2022-11-10T07:31:48.667Z,7.06
2022-11-10T07:35:10.440Z,7.10
2022-11-10T07:38:31.988Z,7.13
2022-11-10T07:41:53.458Z,7.21
2022-11-10T07:45:16.708Z,7.26
2022-11-10T07:48:38.031Z,7.36
2022-11-10T07:51:59.647Z,7.42
2022-11-10T07:55:21.925Z,7.57
2022-11-10T07:58:43.666Z,7.65
2022-11-10T08:02:08.319Z,7.73
2022-11-10T08:05:30.059Z,7.79
2022-11-10T08:08:51.826Z,7.90
2022-11-10T08:12:13.680Z,7.97
2022-11-10T08:15:36.258Z,8.18
2022-11-10T08:18:59.064Z,8.30
2022-11-10T08:22:21.094Z,8.42
2022-11-10T08:25:43.213Z,8.54
2022-11-10T08:29:04.711Z,8.62
2022-11-10T08:32:26.450Z,8.77
2022-11-10T08:35:51.193Z,8.82
2022-11-10T08:39:13.325Z,8.99
2022-11-10T08:42:38.892Z,8.96
2022-11-10T08:46:01.837Z,9.00
2022-11-10T08:49:23.507Z,9.01
2022-11-10T08:52:46.432Z,9.15
2022-11-10T08:56:08.543Z,9.20
2022-11-10T08:59:29.631Z,9.33
2022-11-10T09:02:51.370Z,9.46
2022-11-10T09:06:12.977Z,9.54
2022-11-10T09:09:35.636Z,9.62
2022-11-10T09:13:00.354Z,9.74
2022-11-10T09:16:21.910Z,9.80
2022-11-10T09:19:43.666Z,9.77
2022-11-10T09:23:06.671Z,9.74
2022-11-10T09:26:29.230Z,9.71
2022-11-10T09:29:50.879Z,9.70
2022-11-10T09:33:12.639Z,9.75
2022-11-10T09:36:34.218Z,9.95
2022-11-10T09:39:57.651Z,10.24
2022-11-10T09:43:30.190Z,10.47
2022-11-10T09:46:58.163Z,10.50
2022-11-10T09:50:27.140Z,10.60
2022-11-10T09:53:52.816Z,10.66
2022-11-10T09:57:16.737Z,10.61
2022-11-10T10:00:41.863Z,10.59
2022-11-10T10:04:15.158Z,10.64
2022-11-10T10:07:47.365Z,10.56
2022-11-10T10:11:17.102Z,10.96
2022-11-10T10:14:57.561Z,11.42
2022-11-10T10:18:29.586Z,11.61
2022-11-10T10:22:06.890Z,11.55
2022-11-10T10:25:29.509Z,11.52
2022-11-10T10:28:52.579Z,11.49
2022-11-10T10:32:15.626Z,11.44
2022-11-10T10:35:42.004Z,11.55
2022-11-10T10:39:07.393Z,11.66
2022-11-10T10:42:32.431Z,11.61
2022-11-10T10:46:06.961Z,11.95
2022-11-10T10:49:30.781Z,11.83
2022-11-10T10:53:18.125Z,11.78
2022-11-10T10:56:39.554Z,11.59
2022-11-10T11:00:21.193Z,11.56
2022-11-10T11:03:44.419Z,11.57
2022-11-10T11:07:08.000Z,11.61
2022-11-10T11:10:33.499Z,11.50
2022-11-10T11:13:55.205Z,11.63
2022-11-10T11:17:21.304Z,11.53
2022-11-10T11:21:01.236Z,11.51
2022-11-10T11:24:31.433Z,11.79
2022-11-10T11:28:04.804Z,11.86
2022-11-10T11:31:43.203Z,11.85
2022-11-10T11:35:15.843Z,11.69
2022-11-10T11:38:53.071Z,11.64
2022-11-10T11:42:28.538Z,11.67
2022-11-10T11:45:59.700Z,11.76
2022-11-10T11:49:36.858Z,11.75
2022-11-10T11:53:09.517Z,11.88
2022-11-10T11:56:34.202Z,11.91
2022-11-10T12:00:04.629Z,11.96
2022-11-10T12:03:49.984Z,11.85
2022-11-10T12:07:24.929Z,12.01
2022-11-10T12:10:58.928Z,12.04
2022-11-10T12:14:32.884Z,12.01
2022-11-10T12:18:05.161Z,12.06
2022-11-10T12:21:33.233Z,12.10
2022-11-10T12:25:11.351Z,12.19
2022-11-10T12:28:37.569Z,12.61
2022-11-10T12:32:05.893Z,12.61
2022-11-10T12:35:30.065Z,12.66
2022-11-10T12:39:00.268Z,12.76
2022-11-10T12:42:24.100Z,12.64
2022-11-10T12:45:48.133Z,12.42
2022-11-10T12:49:18.575Z,12.29
2022-11-10T12:52:45.709Z,12.06
2022-11-10T12:56:14.942Z,11.98
2022-11-10T12:59:38.801Z,11.98
2022-11-10T13:03:01.110Z,11.85
2022-11-10T13:06:28.504Z,11.85
2022-11-10T13:09:50.204Z,11.99
2022-11-10T13:13:15.800Z,12.09
2022-11-10T13:16:54.343Z,12.21
2022-11-10T13:20:48.582Z,12.27
2022-11-10T13:24:22.642Z,12.18
2022-11-10T13:27:53.751Z,11.98
2022-11-10T13:31:50.929Z,12.08
2022-11-10T13:35:54.938Z,12.11
2022-11-10T13:39:24.286Z,12.08
2022-11-10T13:42:47.279Z,11.86
2022-11-10T13:46:09.236Z,11.94
2022-11-10T13:49:53.441Z,11.82
2022-11-10T13:53:25.903Z,11.73
2022-11-10T13:57:15.658Z,11.78
2022-11-10T14:00:37.882Z,11.85
2022-11-10T14:04:02.226Z,11.89
2022-11-10T14:27:47.041Z,11.43
2022-11-10T14:31:20.105Z,11.76
2022-11-10T14:34:48.050Z,11.49
2022-11-10T14:38:20.857Z,11.43
2022-11-10T14:41:48.035Z,11.36
2022-11-10T14:45:17.453Z,11.18
2022-11-10T14:48:39.849Z,10.96
2022-11-10T14:52:01.544Z,11.02
2022-11-10T14:55:25.089Z,10.96
2022-11-10T14:58:49.277Z,10.84
2022-11-10T15:02:17.050Z,10.75
2022-11-10T15:05:39.643Z,10.65
2022-11-10T15:09:16.358Z,10.73
2022-11-10T15:12:41.915Z,10.79
2022-11-10T15:16:23.022Z,10.75
2022-11-10T15:19:56.357Z,10.58
2022-11-10T15:23:23.685Z,10.43
2022-11-10T15:26:45.413Z,10.40
2022-11-10T15:30:22.787Z,10.26
2022-11-10T15:33:48.079Z,10.25
2022-11-10T15:37:29.151Z,10.05
2022-11-10T15:40:54.218Z,10.15
2022-11-10T15:44:17.971Z,10.11
2022-11-10T15:47:39.831Z,10.03
2022-11-10T15:51:01.559Z,10.00
2022-11-10T15:54:28.124Z,9.94
2022-11-10T15:57:49.468Z,9.86
2022-11-10T16:01:13.384Z,9.80
2022-11-10T16:04:35.079Z,9.82
2022-11-10T16:07:56.862Z,9.74
2022-11-10T16:11:22.437Z,9.71
2022-11-10T16:14:47.698Z,9.53
2022-11-10T16:18:14.340Z,9.53
2022-11-10T16:21:35.779Z,9.60
2022-11-10T16:24:57.285Z,9.71
2022-11-10T16:28:24.078Z,9.62
2022-11-10T16:31:45.566Z,9.55
2022-11-10T16:35:07.632Z,9.56
2022-11-10T16:38:31.288Z,9.26
2022-11-10T16:41:52.666Z,9.35
2022-11-10T16:45:17.388Z,9.38
2022-11-10T16:48:39.068Z,9.43
2022-11-10T16:52:04.450Z,9.46
2022-11-10T16:55:25.827Z,9.35
2022-11-10T16:58:47.433Z,9.37
2022-11-10T17:02:26.681Z,9.37
2022-11-10T17:05:48.745Z,9.29
2022-11-10T17:09:17.212Z,9.29
2022-11-10T17:12:38.935Z,9.05
2022-11-10T17:16:04.604Z,9.04
2022-11-10T17:19:27.998Z,9.07
2022-11-10T17:22:50.543Z,8.96
2022-11-10T17:26:15.337Z,8.92
2022-11-10T17:29:37.144Z,8.75
2022-11-10T17:33:04.569Z,8.79
2022-11-10T17:36:28.170Z,8.63
2022-11-10T17:39:49.906Z,8.71
2022-11-10T17:43:15.643Z,8.69
2022-11-10T17:46:37.170Z,8.75
2022-11-10T17:49:58.685Z,8.53
2022-11-10T17:53:24.775Z,8.38
2022-11-10T17:56:46.813Z,8.45
2022-11-10T18:00:09.961Z,8.45
2022-11-10T18:03:31.602Z,8.42
2022-11-10T18:06:53.215Z,8.50
2022-11-10T18:10:16.467Z,8.53
2022-11-10T18:13:38.496Z,8.52
2022-11-10T18:17:00.190Z,8.50
2022-11-10T18:20:22.081Z,8.46
2022-11-10T18:23:44.290Z,8.45
2022-11-10T18:27:07.534Z,8.49
2022-11-10T18:30:34.743Z,8.44
2022-11-10T18:33:56.816Z,8.32
2022-11-10T18:37:19.134Z,8.25
2022-11-10T18:40:40.655Z,8.21
2022-11-10T18:44:03.448Z,8.25
2022-11-10T18:47:24.985Z,8.25
2022-11-10T18:50:46.402Z,8.28
2022-11-10T18:54:08.378Z,8.29
2022-11-10T18:57:30.163Z,8.34
2022-11-10T19:00:52.839Z,8.32
2022-11-10T19:04:15.218Z,8.34
2022-11-10T19:07:36.738Z,8.31
2022-11-10T19:10:58.459Z,8.24
2022-11-10T19:14:19.976Z,8.20
2022-11-10T19:17:42.698Z,8.25
2022-11-10T19:21:08.068Z,8.26
2022-11-10T19:24:34.707Z,8.21
2022-11-10T19:27:59.850Z,8.22
2022-11-10T19:31:22.942Z,8.15
2022-11-10T19:34:45.603Z,8.23
2022-11-10T19:38:07.171Z,8.21
2022-11-10T19:41:30.901Z,8.11
2022-11-10T19:44:52.419Z,8.11
2022-11-10T19:48:14.370Z,8.07
2022-11-10T19:51:37.106Z,8.09
2022-11-10T19:54:58.954Z,8.13
2022-11-10T19:58:21.004Z,7.98
2022-11-10T20:01:42.341Z,8.01
2022-11-10T20:05:17.339Z,7.91
2022-11-10T20:08:41.111Z,7.89
2022-11-10T20:12:03.093Z,7.96
2022-11-10T20:15:24.571Z,7.97
2022-11-10T20:18:46.492Z,7.98
2022-11-10T20:22:08.224Z,7.96
2022-11-10T20:25:31.621Z,7.88
2022-11-10T20:28:53.501Z,7.90
2022-11-10T20:32:15.020Z,7.88
2022-11-10T20:35:41.728Z,7.89
2022-11-10T20:39:03.408Z,7.91
2022-11-10T20:42:26.288Z,7.90
2022-11-10T20:45:48.006Z,7.86
2022-11-10T20:49:09.566Z,7.85
2022-11-10T20:52:33.555Z,7.90
2022-11-10T20:55:59.632Z,7.86
2022-11-10T20:59:23.034Z,7.90
2022-11-10T21:02:44.831Z,7.80
2022-11-10T21:06:07.275Z,7.81
2022-11-10T21:09:28.930Z,7.92
2022-11-10T21:12:50.593Z,7.92
2022-11-10T21:16:13.582Z,7.88
2022-11-10T21:19:35.310Z,7.99
2022-11-10T21:23:02.044Z,7.95
2022-11-10T21:26:25.325Z,7.99
2022-11-10T21:29:47.205Z,7.95
2022-11-10T21:33:09.816Z,7.82
2022-11-10T21:36:31.746Z,7.89
2022-11-10T21:39:53.380Z,7.97
2022-11-10T21:43:15.187Z,7.98
2022-11-10T21:46:37.112Z,7.90
2022-11-10T21:50:00.090Z,7.80
2022-11-10T21:53:22.017Z,7.92
2022-11-10T21:56:43.687Z,7.99
2022-11-10T22:00:06.384Z,7.93
2022-11-10T22:03:29.509Z,7.89
2022-11-10T22:07:10.083Z,7.87
2022-11-10T22:10:49.033Z,8.04
2022-11-10T22:14:29.793Z,8.01
2022-11-10T22:18:08.020Z,7.97
2022-11-10T22:21:29.387Z,7.92
2022-11-10T22:24:51.895Z,7.92
2022-11-10T22:28:13.469Z,7.89
2022-11-10T22:31:35.162Z,7.87
2022-11-10T22:34:56.463Z,7.87
2022-11-10T22:38:18.250Z,7.84
2022-11-10T22:41:58.554Z,7.77
2022-11-10T22:45:20.124Z,7.68
2022-11-10T22:48:41.896Z,7.68
2022-11-10T22:52:03.400Z,7.73
2022-11-10T22:55:25.067Z,7.71
2022-11-10T22:58:48.166Z,7.72
2022-11-10T23:02:09.577Z,7.53
2022-11-10T23:05:34.849Z,7.59
2022-11-10T23:08:56.542Z,7.53
2022-11-10T23:12:18.374Z,7.58
2022-11-10T23:15:41.232Z,7.60
2022-11-10T23:19:02.754Z,7.59
2022-11-10T23:22:24.077Z,7.58
2022-11-10T23:25:56.539Z,7.58
2022-11-10T23:29:17.786Z,7.57
2022-11-10T23:32:40.660Z,7.44
2022-11-10T23:36:03.075Z,7.47
2022-11-10T23:39:24.773Z,7.52
2022-11-10T23:42:46.537Z,7.57
2022-11-10T23:46:08.261Z,7.52
2022-11-10T23:49:31.019Z,7.41
2022-11-10T23:52:53.192Z,7.38
2022-11-10T23:56:15.439Z,7.45
2022-11-10T23:59:37.098Z,7.35
